createdAt,value
2023-04-08T00:02:17.517Z,17.25
2023-04-08T00:04:45.986Z,17.52
2023-04-08T00:07:15.744Z,17.60
2023-04-08T00:09:44.038Z,17.88
2023-04-08T00:12:12.522Z,17.45
2023-04-08T00:14:41.674Z,16.10
2023-04-08T00:17:10.432Z,16.15
2023-04-08T00:19:38.662Z,17.10
2023-04-08T00:22:06.944Z,15.95
2023-04-08T00:24:36.839Z,17.00
2023-04-08T00:27:05.463Z,16.23
2023-04-08T00:29:33.750Z,16.35
2023-04-08T00:32:02.990Z,16.13
2023-04-08T00:34:31.301Z,17.42
2023-04-08T00:36:59.603Z,16.15
2023-04-08T00:39:28.053Z,17.02
2023-04-08T00:41:57.656Z,16.95
2023-04-08T00:44:26.009Z,17.27
2023-04-08T00:46:54.303Z,18.15
2023-04-08T00:49:22.656Z,18.75
2023-04-08T00:51:50.970Z,19.35
2023-04-08T00:54:19.273Z,21.73
2023-04-08T00:56:47.630Z,21.52
2023-04-08T00:59:19.126Z,23.10
2023-04-08T01:01:56.933Z,20.98
2023-04-08T01:04:32.807Z,21.38
2023-04-08T01:07:09.365Z,22.45
2023-04-08T01:09:41.646Z,23.02
2023-04-08T01:12:13.070Z,23.15
2023-04-08T01:14:46.234Z,22.55
2023-04-08T01:17:14.701Z,22.85
2023-04-08T01:19:44.949Z,24.20
2023-04-08T01:22:28.086Z,24.45
2023-04-08T01:25:04.426Z,23.38
2023-04-08T01:27:35.717Z,24.58
2023-04-08T01:30:06.815Z,21.92
2023-04-08T01:32:36.811Z,23.10
2023-04-08T01:35:06.688Z,23.40
2023-04-08T01:37:36.001Z,23.55
2023-04-08T01:40:05.414Z,22.98
2023-04-08T01:42:36.954Z,25.08
2023-04-08T01:45:06.772Z,23.52
2023-04-08T01:47:37.418Z,23.25
2023-04-08T01:50:08.492Z,24.92
2023-04-08T01:52:39.102Z,24.88
2023-04-08T01:55:08.429Z,25.67
2023-04-08T01:57:40.994Z,24.10
2023-04-08T02:00:12.197Z,26.70
2023-04-08T02:02:44.165Z,25.40
2023-04-08T02:05:12.601Z,25.77
2023-04-08T02:07:40.952Z,25.15
2023-04-08T02:10:10.425Z,25.77
2023-04-08T02:12:40.772Z,26.25
2023-04-08T02:15:10.866Z,26.48
2023-04-08T02:17:46.152Z,27.52
2023-04-08T02:20:20.648Z,27.75
2023-04-08T02:22:56.443Z,28.63
2023-04-08T02:25:26.920Z,26.95
2023-04-08T02:27:58.523Z,28.40
2023-04-08T02:30:29.072Z,29.38
2023-04-08T02:32:59.583Z,28.10
2023-04-08T02:35:29.897Z,27.75
2023-04-08T02:37:58.193Z,26.55
2023-04-08T02:40:28.580Z,26.45
2023-04-08T02:42:59.488Z,28.80
2023-04-08T02:45:33.770Z,28.55
2023-04-08T02:48:02.861Z,28.23
2023-04-08T02:50:31.199Z,29.58
2023-04-08T02:52:59.696Z,30.38
2023-04-08T02:55:28.119Z,30.92
2023-04-08T02:57:57.713Z,31.38
2023-04-08T03:00:26.171Z,32.78
2023-04-08T03:02:54.714Z,30.15
2023-04-08T03:05:23.265Z,29.63
2023-04-08T03:07:51.508Z,32.42
2023-04-08T03:10:19.782Z,29.98
2023-04-08T03:12:48.148Z,32.00
2023-04-08T03:15:17.990Z,30.35
2023-04-08T03:17:46.258Z,31.08
2023-04-08T03:20:14.624Z,31.58
2023-04-08T03:22:43.079Z,30.73
2023-04-08T03:25:11.927Z,29.88
2023-04-08T03:27:40.286Z,31.13
2023-04-08T03:30:10.182Z,30.70
2023-04-08T03:32:40.007Z,32.05
2023-04-08T03:35:09.459Z,33.33
2023-04-08T03:37:37.730Z,32.50
2023-04-08T03:40:07.441Z,29.85
2023-04-08T03:42:35.783Z,32.85
2023-04-08T03:45:04.389Z,31.55
2023-04-08T03:47:32.653Z,30.02
2023-04-08T03:50:02.408Z,29.02
2023-04-08T03:52:30.782Z,28.23
2023-04-08T03:54:59.081Z,29.80
2023-04-08T03:57:27.341Z,31.58
2023-04-08T03:59:55.927Z,33.55
2023-04-08T04:02:24.341Z,30.48
2023-04-08T04:04:52.923Z,31.67
2023-04-08T04:07:22.591Z,29.95
2023-04-08T04:09:54.191Z,29.02
2023-04-08T04:12:22.462Z,30.90
2023-04-08T04:14:50.866Z,31.67
2023-04-08T04:17:19.216Z,28.38
2023-04-08T04:19:47.557Z,30.55
2023-04-08T04:22:15.852Z,30.00
2023-04-08T04:24:49.659Z,29.08
2023-04-08T04:27:18.535Z,31.50
2023-04-08T04:29:46.830Z,29.85
2023-04-08T04:32:15.063Z,29.48
2023-04-08T04:34:44.507Z,27.52
2023-04-08T04:37:12.744Z,30.05
2023-04-08T04:39:41.024Z,29.77
2023-04-08T04:42:10.772Z,28.90
2023-04-08T04:44:39.414Z,28.00
2023-04-08T04:47:07.721Z,29.58
2023-04-08T04:49:35.953Z,29.15
2023-04-08T04:52:04.240Z,28.60
2023-04-08T04:54:32.472Z,28.23
2023-04-08T04:57:01.043Z,30.63
2023-04-08T04:59:30.763Z,29.95
2023-04-08T05:01:59.098Z,30.88
2023-04-08T05:04:27.949Z,30.20
2023-04-08T05:06:56.378Z,30.40
2023-04-08T05:09:24.761Z,31.20
2023-04-08T05:11:53.002Z,30.45
2023-04-08T05:14:21.234Z,31.75
2023-04-08T05:16:50.848Z,29.75
2023-04-08T05:19:19.112Z,32.22
2023-04-08T05:21:47.327Z,31.83
2023-04-08T05:24:15.671Z,32.50
2023-04-08T05:26:43.959Z,32.17
2023-04-08T05:29:12.231Z,29.50
2023-04-08T05:31:40.664Z,30.10
2023-04-08T05:34:11.202Z,27.52
2023-04-08T05:36:39.545Z,25.40
2023-04-08T05:39:07.903Z,25.90
2023-04-08T05:41:36.256Z,23.52
2023-04-08T05:44:04.484Z,21.52
2023-04-08T05:46:32.843Z,22.67
2023-04-08T05:49:01.407Z,23.27
2023-04-08T05:51:31.304Z,22.73
2023-04-08T05:54:00.223Z,21.02
2023-04-08T05:56:28.522Z,21.45
2023-04-08T05:58:56.792Z,20.38
2023-04-08T06:01:25.973Z,19.17
2023-04-08T06:03:56.240Z,17.63
2023-04-08T06:06:25.465Z,18.17
2023-04-08T06:08:55.161Z,17.58
2023-04-08T06:11:23.447Z,15.68
2023-04-08T06:13:51.710Z,15.85
2023-04-08T06:16:21.378Z,16.00
2023-04-08T06:18:50.291Z,14.68
2023-04-08T06:21:18.998Z,14.07
2023-04-08T06:23:47.295Z,13.50
2023-04-08T06:26:17.321Z,13.60
2023-04-08T06:28:45.554Z,13.63
2023-04-08T06:31:13.872Z,12.32
2023-04-08T06:33:42.201Z,11.57
2023-04-08T06:36:11.301Z,13.18
2023-04-08T06:38:39.757Z,13.13
2023-04-08T06:41:09.193Z,13.18
2023-04-08T06:43:38.852Z,13.30
2023-04-08T06:46:07.394Z,13.80
2023-04-08T06:48:37.648Z,14.18
2023-04-08T06:51:07.989Z,14.98
2023-04-08T06:53:36.396Z,15.45
2023-04-08T06:56:04.929Z,16.67
2023-04-08T06:58:33.237Z,17.02
2023-04-08T07:01:03.421Z,16.05
2023-04-08T07:03:31.935Z,16.40
2023-04-08T07:06:00.456Z,16.00
2023-04-08T07:08:28.822Z,14.23
2023-04-08T07:10:57.567Z,15.15
2023-04-08T07:13:25.907Z,14.68
2023-04-08T07:15:55.834Z,15.52
2023-04-08T07:18:26.413Z,15.73
2023-04-08T07:20:55.650Z,15.88
2023-04-08T07:23:24.451Z,15.68
2023-04-08T07:25:52.830Z,14.75
2023-04-08T07:28:21.208Z,15.93
2023-04-08T07:30:49.649Z,16.83
2023-04-08T07:33:17.942Z,14.90
2023-04-08T07:35:47.649Z,16.92
2023-04-08T07:38:16.664Z,17.95
2023-04-08T07:40:44.936Z,18.70
2023-04-08T07:43:13.169Z,18.33
2023-04-08T07:45:41.515Z,17.17
2023-04-08T07:48:09.871Z,16.33
2023-04-08T07:51:08.142Z,19.10
2023-04-08T07:53:28.616Z,19.45
2023-04-08T07:55:56.895Z,20.77
2023-04-08T07:58:25.342Z,20.50
2023-04-08T08:00:54.572Z,21.35
2023-04-08T08:03:22.994Z,20.45
2023-04-08T08:05:51.401Z,19.02
2023-04-08T08:08:19.655Z,21.05
2023-04-08T08:10:49.343Z,20.48
2023-04-08T08:13:21.233Z,20.35
2023-04-08T08:15:54.654Z,21.08
2023-04-08T08:18:22.988Z,21.83
2023-04-08T08:20:51.476Z,21.02
2023-04-08T08:23:19.749Z,21.13
2023-04-08T08:25:49.493Z,22.20
2023-04-08T08:28:17.937Z,20.08
2023-04-08T08:30:46.582Z,22.60
2023-04-08T08:33:14.837Z,23.13
2023-04-08T08:35:46.683Z,22.63
2023-04-08T08:38:20.472Z,23.38
2023-04-08T08:40:59.442Z,24.73
2023-04-08T08:43:39.591Z,25.50
2023-04-08T08:46:25.935Z,24.55
2023-04-08T08:49:01.362Z,25.83
2023-04-08T08:51:33.479Z,26.73
2023-04-08T08:54:11.792Z,25.80
2023-04-08T08:56:50.215Z,25.98
2023-04-08T08:59:23.214Z,27.63
2023-04-08T09:02:02.179Z,25.80
2023-04-08T09:04:35.282Z,28.33
2023-04-08T09:07:18.052Z,29.10
2023-04-08T09:09:55.507Z,29.83
2023-04-08T09:12:32.175Z,25.38
2023-04-08T09:15:15.822Z,26.05
2023-04-08T09:17:48.415Z,25.95
2023-04-08T09:20:31.660Z,27.30
2023-04-08T09:23:13.047Z,27.45
2023-04-08T09:25:44.812Z,27.27
2023-04-08T09:28:22.741Z,27.70
2023-04-08T09:30:51.310Z,27.30
2023-04-08T09:33:19.760Z,29.70
2023-04-08T09:35:48.651Z,28.25
2023-04-08T09:38:17.317Z,28.65
2023-04-08T09:40:46.590Z,29.58
2023-04-08T09:43:19.814Z,28.98
2023-04-08T09:45:49.660Z,29.98
2023-04-08T09:48:21.912Z,28.13
2023-04-08T09:50:53.965Z,28.30
2023-04-08T09:53:31.770Z,27.02
2023-04-08T09:56:02.089Z,28.40
2023-04-08T09:58:35.715Z,29.10
2023-04-08T10:01:06.723Z,29.92
2023-04-08T10:03:42.218Z,33.70
2023-04-08T10:06:12.065Z,31.75
2023-04-08T10:08:40.697Z,31.17
2023-04-08T10:11:09.143Z,34.15
2023-04-08T10:13:38.061Z,35.15
2023-04-08T10:16:29.950Z,32.78
2023-04-08T10:18:58.318Z,31.63
2023-04-08T10:21:43.341Z,31.67
2023-04-08T10:24:12.595Z,28.45
2023-04-08T10:26:43.352Z,29.85
2023-04-08T10:29:46.359Z,28.95
2023-04-08T10:32:31.635Z,26.50
2023-04-08T10:34:59.924Z,26.15
2023-04-08T10:37:28.861Z,24.60
2023-04-08T10:39:57.254Z,26.40
2023-04-08T10:42:29.924Z,25.23
2023-04-08T10:45:03.277Z,25.13
2023-04-08T10:47:33.005Z,23.67
2023-04-08T10:50:02.468Z,25.08
2023-04-08T10:52:30.960Z,24.60
2023-04-08T10:54:59.279Z,22.90
2023-04-08T10:57:27.951Z,22.98
2023-04-08T10:59:56.355Z,21.23
2023-04-08T11:02:35.190Z,22.00
2023-04-08T11:05:04.450Z,22.30
2023-04-08T11:07:33.087Z,22.17
2023-04-08T11:10:05.135Z,22.15
2023-04-08T11:12:34.023Z,22.92
2023-04-08T11:15:03.875Z,21.95
2023-04-08T11:17:32.668Z,22.75
2023-04-08T11:20:06.306Z,22.85
2023-04-08T11:22:35.865Z,21.77
2023-04-08T11:25:04.615Z,23.58
2023-04-08T11:27:33.698Z,22.80
2023-04-08T11:30:03.240Z,24.25
2023-04-08T11:32:31.758Z,23.27
2023-04-08T11:35:03.446Z,24.20
2023-04-08T11:37:39.714Z,23.77
2023-04-08T11:40:12.728Z,23.85
2023-04-08T11:42:41.811Z,23.80
2023-04-08T11:45:14.880Z,23.35
2023-04-08T11:47:44.053Z,24.38
2023-04-08T11:50:13.956Z,24.98
2023-04-08T11:52:46.962Z,23.70
2023-04-08T11:55:25.826Z,23.02
2023-04-08T11:57:54.997Z,24.52
2023-04-08T12:00:24.647Z,22.63
2023-04-08T12:02:54.303Z,23.65
2023-04-08T12:05:23.967Z,22.15
2023-04-08T12:07:52.384Z,22.00
2023-04-08T12:10:21.167Z,20.73
2023-04-08T12:12:49.768Z,20.17
2023-04-08T12:15:18.395Z,20.75
2023-04-08T12:17:46.736Z,18.75
2023-04-08T12:20:17.119Z,17.13
2023-04-08T12:22:46.929Z,17.85
2023-04-08T12:25:15.433Z,17.38
2023-04-08T12:27:43.755Z,18.13
2023-04-08T12:30:15.363Z,16.38
2023-04-08T12:32:46.066Z,16.63
2023-04-08T12:35:15.023Z,17.05
2023-04-08T12:37:43.356Z,14.75
2023-04-08T12:40:13.522Z,15.57
2023-04-08T12:42:41.813Z,15.30
2023-04-08T12:45:10.526Z,17.00
2023-04-08T12:47:38.812Z,15.80
2023-04-08T12:50:09.865Z,15.18
2023-04-08T12:52:38.235Z,15.07
2023-04-08T12:55:08.032Z,15.05
2023-04-08T12:57:37.699Z,15.05
2023-04-08T13:00:07.566Z,14.02
2023-04-08T13:02:35.895Z,13.10
2023-04-08T13:05:04.358Z,13.30
2023-04-08T13:07:32.650Z,13.30
2023-04-08T13:10:00.999Z,13.52
2023-04-08T13:12:29.270Z,13.18
2023-04-08T13:15:00.022Z,13.02
2023-04-08T13:17:29.038Z,13.18
2023-04-08T13:19:57.357Z,13.48
2023-04-08T13:22:25.620Z,13.98
2023-04-08T13:24:53.835Z,13.60
2023-04-08T13:27:22.104Z,13.55
2023-04-08T13:29:50.829Z,12.75
2023-04-08T13:32:20.858Z,13.00
2023-04-08T13:34:49.291Z,13.02
2023-04-08T13:37:17.699Z,13.52
2023-04-08T13:39:46.141Z,13.25
2023-04-08T13:42:14.499Z,13.23
2023-04-08T13:44:42.960Z,13.00
2023-04-08T13:47:11.623Z,12.90
2023-04-08T13:49:41.342Z,12.73
2023-04-08T13:52:09.576Z,12.48
2023-04-08T13:54:37.839Z,12.35
2023-04-08T13:57:06.225Z,12.75
2023-04-08T13:59:34.595Z,12.90
2023-04-08T14:02:03.473Z,13.48
2023-04-08T14:04:31.870Z,12.63
2023-04-08T14:07:01.963Z,13.38
2023-04-08T14:09:30.740Z,12.93
2023-04-08T14:11:59.510Z,13.73
2023-04-08T14:14:27.776Z,12.60
2023-04-08T14:16:56.209Z,13.52
2023-04-08T14:19:24.771Z,12.93
2023-04-08T14:21:53.275Z,11.57
2023-04-08T14:24:22.918Z,13.10
2023-04-08T14:26:51.318Z,13.18
2023-04-08T14:29:19.590Z,14.07
2023-04-08T14:31:48.284Z,13.27
2023-04-08T14:34:16.551Z,12.45
2023-04-08T14:36:45.418Z,12.85
2023-04-08T14:39:13.917Z,12.30
2023-04-08T14:41:43.752Z,13.82
2023-04-08T14:44:12.005Z,12.10
2023-04-08T14:46:40.278Z,12.38
2023-04-08T14:49:08.563Z,13.00
2023-04-08T14:51:37.914Z,14.10
2023-04-08T14:54:06.828Z,12.38
2023-04-08T14:56:35.067Z,12.75
2023-04-08T14:59:04.768Z,12.00
2023-04-08T15:01:33.682Z,12.95
2023-04-08T15:04:02.569Z,12.13
2023-04-08T15:06:31.357Z,11.93
2023-04-08T15:08:59.769Z,12.25
2023-04-08T15:11:28.028Z,12.30
2023-04-08T15:13:56.309Z,11.80
2023-04-08T15:16:26.541Z,11.68
2023-04-08T15:18:55.093Z,12.32
2023-04-08T15:21:23.701Z,11.15
2023-04-08T15:23:52.172Z,11.15
2023-04-08T15:26:21.540Z,11.00
2023-04-08T15:28:50.233Z,11.43
2023-04-08T15:31:18.755Z,11.00
2023-04-08T15:33:48.806Z,11.10
2023-04-08T15:36:19.769Z,10.80
2023-04-08T15:38:49.513Z,10.75
2023-04-08T15:41:19.272Z,10.45
2023-04-08T15:43:47.891Z,10.38
2023-04-08T15:46:19.653Z,10.63
2023-04-08T15:48:50.148Z,9.55
2023-04-08T15:51:18.661Z,10.85
2023-04-08T15:53:47.253Z,10.75
2023-04-08T15:56:16.394Z,10.90
2023-04-08T15:58:45.615Z,10.23
2023-04-08T16:01:14.320Z,10.95
2023-04-08T16:03:42.792Z,10.40
2023-04-08T16:06:12.499Z,10.02
2023-04-08T16:08:42.197Z,9.18
2023-04-08T16:11:10.543Z,8.10
2023-04-08T16:13:42.214Z,8.13
2023-04-08T16:16:12.278Z,7.30
2023-04-08T16:18:41.760Z,7.90
2023-04-08T16:21:12.009Z,7.65
2023-04-08T16:23:40.484Z,7.68
2023-04-08T16:26:09.087Z,7.75
2023-04-08T16:28:39.971Z,7.00
2023-04-08T16:31:08.396Z,6.18
2023-04-08T16:33:36.762Z,6.80
2023-04-08T16:36:05.531Z,6.03
2023-04-08T16:38:35.577Z,6.00
2023-04-08T16:41:06.239Z,5.95
2023-04-08T16:43:34.797Z,6.28
2023-04-08T16:46:12.286Z,5.88
2023-04-08T16:48:41.933Z,4.90
2023-04-08T16:51:10.511Z,4.47
2023-04-08T16:53:41.104Z,3.30
2023-04-08T16:56:15.763Z,3.35
2023-04-08T16:58:44.526Z,3.05
2023-04-08T17:01:15.108Z,2.97
2023-04-08T17:03:43.548Z,2.35
2023-04-08T17:06:13.810Z,2.70
2023-04-08T17:08:44.204Z,2.42
2023-04-08T17:11:14.647Z,2.45
2023-04-08T17:13:44.772Z,2.83
2023-04-08T17:16:15.827Z,3.10
2023-04-08T17:18:44.995Z,2.95
2023-04-08T17:21:13.993Z,3.50
2023-04-08T17:23:43.826Z,3.42
2023-04-08T17:26:12.842Z,3.70
2023-04-08T17:28:43.157Z,3.72
2023-04-08T17:31:11.798Z,3.72
2023-04-08T17:33:40.132Z,4.40
2023-04-08T17:36:09.068Z,3.58
2023-04-08T17:38:39.822Z,3.95
2023-04-08T17:41:10.120Z,4.50
2023-04-08T17:43:38.680Z,4.38
2023-04-08T17:46:07.004Z,4.40
2023-04-08T17:48:35.407Z,4.32
2023-04-08T17:51:05.668Z,4.72
2023-04-08T17:53:34.905Z,4.07
2023-04-08T17:56:03.435Z,4.32
2023-04-08T17:58:33.118Z,4.80
2023-04-08T18:01:01.804Z,4.45
2023-04-08T18:03:30.329Z,5.30
2023-04-08T18:05:59.268Z,5.20
2023-04-08T18:08:27.818Z,7.55
2023-04-08T18:10:56.136Z,9.48
2023-04-08T18:13:24.353Z,11.45
2023-04-08T18:15:53.973Z,10.32
2023-04-08T18:18:22.448Z,10.40
2023-04-08T18:20:50.905Z,9.65
2023-04-08T18:23:19.251Z,11.90
2023-04-08T18:25:47.808Z,12.75
2023-04-08T18:28:16.131Z,14.10
2023-04-08T18:30:44.439Z,13.27
2023-04-08T18:33:14.079Z,14.25
2023-04-08T18:35:43.337Z,14.05
2023-04-08T18:38:11.650Z,14.93
2023-04-08T18:40:40.072Z,14.18
2023-04-08T18:43:08.360Z,16.45
2023-04-08T18:45:36.646Z,17.50
2023-04-08T18:48:05.062Z,17.75
2023-04-08T18:50:34.829Z,17.55
2023-04-08T18:53:03.112Z,15.32
2023-04-08T18:55:35.914Z,13.02
2023-04-08T18:58:04.774Z,12.73
2023-04-08T19:00:33.024Z,12.07
2023-04-08T19:03:03.406Z,14.63
2023-04-08T19:05:32.966Z,15.10
2023-04-08T19:08:02.896Z,14.98
2023-04-08T19:10:31.763Z,15.85
2023-04-08T19:13:00.522Z,15.95
2023-04-08T19:15:29.370Z,18.20
2023-04-08T19:17:59.065Z,18.95
2023-04-08T19:20:28.574Z,19.50
2023-04-08T19:22:57.282Z,20.35
2023-04-08T19:25:26.958Z,19.25
2023-04-08T19:27:55.173Z,19.90
2023-04-08T19:30:23.439Z,20.10
2023-04-08T19:32:51.800Z,18.77
2023-04-08T19:35:20.226Z,19.15
2023-04-08T19:37:48.501Z,19.83
2023-04-08T19:40:16.795Z,21.10
2023-04-08T19:42:47.275Z,21.52
2023-04-08T19:45:15.833Z,21.00
2023-04-08T19:47:44.911Z,20.17
2023-04-08T19:50:14.106Z,20.88
2023-04-08T19:52:42.458Z,20.80
2023-04-08T19:55:11.311Z,21.40
2023-04-08T19:57:39.702Z,23.42
2023-04-08T20:00:13.559Z,24.98
2023-04-08T20:02:42.839Z,26.58
2023-04-08T20:05:14.873Z,25.02
2023-04-08T20:07:43.381Z,22.17
2023-04-08T20:10:13.355Z,22.65
2023-04-08T20:12:42.067Z,20.88
2023-04-08T20:15:23.765Z,22.98
2023-04-08T20:17:53.774Z,24.25
2023-04-08T20:20:22.726Z,24.30
2023-04-08T20:22:51.172Z,23.83
2023-04-08T20:25:19.752Z,23.67
2023-04-08T20:27:48.020Z,23.77
2023-04-08T20:30:18.440Z,24.02
2023-04-08T20:32:46.903Z,24.45
2023-04-08T20:35:15.775Z,22.33
2023-04-08T20:37:44.140Z,22.63
2023-04-08T20:40:13.037Z,23.70
2023-04-08T20:42:41.482Z,23.60
2023-04-08T20:45:11.754Z,24.17
2023-04-08T20:47:41.697Z,23.83
2023-04-08T20:50:11.564Z,22.00
2023-04-08T20:52:39.878Z,23.38
2023-04-08T20:55:09.719Z,23.10
2023-04-08T20:57:38.045Z,23.92
2023-04-08T21:00:07.700Z,24.48
2023-04-08T21:02:36.415Z,23.45
2023-04-08T21:05:06.828Z,24.80
2023-04-08T21:07:38.478Z,23.02
2023-04-08T21:10:08.605Z,23.73
2023-04-08T21:12:36.884Z,25.60
2023-04-08T21:15:05.719Z,23.23
2023-04-08T21:17:34.019Z,25.05
2023-04-08T21:20:02.790Z,24.55
2023-04-08T21:22:32.812Z,25.92
2023-04-08T21:25:01.108Z,23.90
2023-04-08T21:27:30.389Z,24.33
2023-04-08T21:29:58.698Z,24.88
2023-04-08T21:32:30.080Z,24.80
2023-04-08T21:34:58.702Z,24.75
2023-04-08T21:37:27.196Z,24.27
2023-04-08T21:39:56.829Z,25.45
2023-04-08T21:42:26.329Z,25.02
2023-04-08T21:44:54.916Z,24.45
2023-04-08T21:47:23.219Z,25.35
2023-04-08T21:49:51.730Z,26.50
2023-04-08T21:52:20.026Z,25.15
2023-04-08T21:54:51.652Z,24.52
2023-04-08T21:57:21.399Z,25.65
2023-04-08T21:59:50.176Z,26.70
2023-04-08T22:02:18.614Z,24.25
2023-04-08T22:04:46.977Z,25.42
2023-04-08T22:07:15.648Z,27.48
2023-04-08T22:09:43.922Z,25.40
2023-04-08T22:12:12.280Z,28.08
2023-04-08T22:14:41.969Z,25.98
2023-04-08T22:17:10.635Z,28.13
2023-04-08T22:19:38.931Z,26.50
2023-04-08T22:22:07.166Z,25.88
2023-04-08T22:24:35.826Z,24.23
2023-04-08T22:27:04.445Z,25.98
2023-04-08T22:29:32.723Z,24.75
2023-04-08T22:32:02.631Z,27.20
2023-04-08T22:34:30.950Z,27.02
2023-04-08T22:36:59.166Z,26.63
2023-04-08T22:39:27.721Z,28.02
2023-04-08T22:41:56.673Z,28.52
2023-04-08T22:44:24.970Z,28.30
2023-04-08T22:46:53.224Z,28.23
2023-04-08T22:49:23.142Z,27.52
2023-04-08T22:51:51.349Z,25.30
2023-04-08T22:54:19.674Z,27.30
2023-04-08T22:56:47.909Z,28.48
2023-04-08T22:59:16.349Z,29.77
2023-04-08T23:01:45.307Z,29.83
2023-04-08T23:04:13.644Z,31.75
2023-04-08T23:06:43.413Z,32.38
2023-04-08T23:09:11.667Z,31.02
2023-04-08T23:11:39.961Z,30.20
2023-04-08T23:14:08.268Z,31.55
2023-04-08T23:16:36.533Z,29.95
2023-04-08T23:19:04.836Z,28.83
2023-04-08T23:21:33.125Z,29.48
2023-04-08T23:24:02.814Z,30.83
2023-04-08T23:26:31.114Z,31.50
2023-04-08T23:28:59.325Z,31.65
2023-04-08T23:31:27.719Z,31.67
2023-04-08T23:33:56.153Z,30.83
2023-04-08T23:36:24.476Z,32.05
2023-04-08T23:38:53.035Z,30.75
2023-04-08T23:41:22.821Z,31.38
2023-04-08T23:43:52.650Z,31.25
2023-04-08T23:46:20.926Z,29.88
2023-04-08T23:48:49.351Z,32.45
2023-04-08T23:51:17.736Z,33.40
2023-04-08T23:53:46.100Z,32.55
2023-04-08T23:56:14.422Z,34.97
2023-04-08T23:58:44.120Z,35.25
